Latest Coastal Weather Observations for Avalon

IDV60701

Issued at 11:21 pm EST Tuesday 28 July 2015 (issued every 10 minutes, with the page automatically refreshed every 10 minutes)

About coastal observations | Map of coastal stations | Coastal observations for VIC | Marine services | Other Formats
Station Details ID: 087113 Name: AVALON AIRPORT Lat: -38.03 Lon: 144.48 Height: 10.6 m
Data from the previous 72 hours. | See also: Recent months at Avalon
Date/Time
EST
Temp

°C
Wind Pressure Rain
since 9am
mm
Weather Cloud Vis
km
Sea
Height
m
Swell
Dir
 
Speed
knots
Gust
knots
hPa Trend Height
m
Period
s
Dir
28/11:00pm 8.3 NW 7 8 1033.8 - 0.2 - Partly cloudy 10 - - - -
28/10:30pm 8.8 WNW 6 8 1034.0 - 0.2 - Partly cloudy 10 - - - -
28/10:00pm 8.4 NW 7 8 1034.3 - 0.2 - Partly cloudy 10 - - - -
28/09:30pm 8.7 W 5 7 1034.3 - 0.2 - Partly cloudy 10 - - - -
28/09:00pm 8.4 W 7 7 1034.6 - 0.2 - Mostly cloudy 10 - - - -
28/08:30pm 8.9 W 6 8 1034.4 - 0.2 - Partly cloudy 10 - - - -
28/08:00pm 9.3 W 8 9 1034.2 - 0.2 - Partly cloudy 10 - - - -
28/07:30pm 10.3 WNW 5 6 1034.2 - 0.2 - Cloudy 10 - - - -
28/07:00pm 10.8 NW 5 6 1034.0 - 0.2 - Cloudy 10 - - - -
28/06:30pm 11.4 WNW 6 8 1033.8 - 0.2 - Cloudy 10 - - - -
28/06:00pm 11.0 W 6 7 1033.6 - 0.2 - Mostly cloudy 10 - - - -
28/05:30pm 11.3 W 7 9 1033.5 - 0.2 - Cloudy 10 - - - -
28/05:00pm 11.9 W 7 10 1033.4 - 0.2 - Partly cloudy 10 - - - -
28/04:30pm 12.7 W 9 13 1033.2 - 0.2 - Cloudy 10 - - - -
28/04:00pm 13.3 W 9 13 1033.3 - 0.2 - Partly cloudy 10 - - - -
28/03:30pm 13.3 WSW 13 16 1033.4 - 0.2 - Partly cloudy 10 - - - -
28/03:00pm 13.8 W 12 17 1033.1 - 0.2 Recent precip. Partly cloudy 10 - - - -
28/02:30pm 13.7 WSW 12 16 1033.3 - 0.0 - Partly cloudy 10 - - - -
28/02:00pm 13.0 WSW 11 15 1033.4 - 0.0 - Partly cloudy 10 - - - -
28/01:30pm 13.4 WSW 13 16 1033.7 - 0.0 - Partly cloudy 10 - - - -
28/01:00pm 13.3 W 12 16 1033.9 - 0.0 - Partly cloudy 10 - - - -
28/12:30pm 12.3 WSW 11 15 1034.3 - 0.0 - Partly cloudy 10 - - - -
28/12:00pm 11.6 SW 6 8 1034.7 - 0.0 - Cloudy 10 - - - -
28/11:30am 11.4 WSW 6 9 1035.0 - 0.0 - Partly cloudy 10 - - - -
28/11:00am 11.7 W 9 12 1035.4 - 0.0 - Partly cloudy 10 - - - -
28/10:30am 10.5 W 10 14 1035.4 - 0.0 - Partly cloudy 10 - - - -
28/10:00am 9.9 W 12 16 1035.5 - 0.0 - - 10 - - - -
28/09:30am 9.7 W 12 15 1035.2 - 0.0 - - 10 - - - -
28/09:00am 8.0 W 8 10 1035.1 - 0.0 - - 10 - - - -
28/08:30am 7.2 W 8 9 1034.9 - 0.0 - Partly cloudy 10 - - - -
28/08:00am 5.5 W 7 8 1034.7 - 0.0 - Partly cloudy 10 - - - -
28/07:30am 5.8 W 6 7 1034.3 - 0.0 - Partly cloudy 10 - - - -
28/07:00am 5.4 W 7 8 1033.9 - 0.0 - Partly cloudy 10 - - - -
28/06:30am 6.8 W 7 9 1033.7 - 0.0 - Partly cloudy 10 - - - -
28/06:00am 7.6 W 7 10 1033.2 - 0.0 - Cloudy 10 - - - -
28/05:30am 7.8 W 9 11 1032.8 - 0.0 - Partly cloudy 10 - - - -
28/05:00am 7.6 W 10 13 1032.5 - 0.0 - Partly cloudy 10 - - - -
28/04:30am 7.1 W 7 11 1032.4 - 0.0 - Partly cloudy 10 - - - -
28/04:00am 7.0 W 9 11 1032.3 - 0.0 - Partly cloudy 10 - - - -
28/03:30am 7.0 W 9 11 1032.1 - 0.0 - Partly cloudy 10 - - - -
28/03:00am 7.0 WNW 10 13 1032.0 - 0.0 - Mostly clear 10 - - - -
28/02:30am 7.0 WNW 9 11 1032.0 - 0.0 - Partly cloudy 10 - - - -
28/02:00am 7.0 WNW 8 10 1031.9 - 0.0 - Partly cloudy 10 - - - -
28/01:30am 7.8 WNW 11 15 1031.5 - 0.0 - Partly cloudy 10 - - - -
28/01:00am 7.4 WNW 9 11 1031.4 - 0.0 - Partly cloudy 10 - - - -
28/12:30am 7.9 W 10 13 1031.5 - 0.0 - Partly cloudy 10 - - - -
28/12:00am 8.1 WNW 11 14 1031.4 - 0.0 - Mostly cloudy 10 - - - -
 
Date/Time
EST
Temp

°C
Wind Pressure Rain
since 9am
mm
Weather Cloud Vis
km
Sea
Height
m
Swell
Dir
 
Speed
knots
Gust
knots
hPa Trend Height
m
Period
s
Dir
27/11:30pm 7.9 WNW 12 16 1031.3 - 0.0 - Partly cloudy 10 - - - -
27/11:00pm 8.0 WNW 13 15 1031.2 - 0.0 - - 10 - - - -
27/10:30pm 8.1 WNW 13 16 1031.2 - 0.0 - - 10 - - - -
27/10:00pm 8.0 WNW 14 17 1031.2 - 0.0 - - 10 - - - -
27/09:30pm 8.1 WNW 14 17 1031.1 - 0.0 - Partly cloudy 10 - - - -
27/09:00pm 8.3 WNW 14 17 1031.1 - 0.0 - Mostly clear 10 - - - -
27/08:30pm 8.7 WNW 14 19 1031.0 - 0.0 - Partly cloudy 10 - - - -
27/08:00pm 8.5 WNW 13 16 1030.9 - 0.0 - Partly cloudy 10 - - - -
27/07:30pm 8.3 W 12 14 1030.8 - 0.0 - Partly cloudy 10 - - - -
27/07:00pm 7.6 WNW 8 10 1030.6 - 0.0 - - 10 - - - -
27/06:30pm 8.1 W 7 8 1030.3 - 0.0 - - 10 - - - -
27/06:00pm 9.1 W 8 10 1029.9 - 0.0 Rain Partly cloudy 10 - - - -
27/05:30pm 9.6 WSW 10 14 1029.6 - 0.0 - Partly cloudy 10 - - - -
27/05:17pm 9.5 WSW 17 27 1029.7 - 0.0 - Partly cloudy 10 - - - -
27/05:00pm 11.6 W 14 19 1029.4 - 0.0 - Partly cloudy 10 - - - -
27/04:30pm 11.7 W 15 21 1029.1 - 0.0 - Partly cloudy 10 - - - -
27/04:00pm 12.4 W 16 25 1028.9 - 0.0 - Partly cloudy 10 - - - -
27/03:42pm 12.7 W 17 27 1028.7 - 0.0 - Partly cloudy 10 - - - -
27/03:30pm 12.5 W 16 22 1028.4 - 0.0 - Partly cloudy 10 - - - -
27/03:00pm 12.9 W 16 24 1028.2 - 0.0 - Partly cloudy 10 - - - -
27/02:30pm 12.8 W 16 23 1027.8 - 0.0 - Partly cloudy 10 - - - -
27/02:00pm 12.1 WSW 18 24 1027.8 - 0.0 - Partly cloudy 10 - - - -
27/01:30pm 12.2 W 18 25 1027.9 - 0.0 - Partly cloudy 10 - - - -
27/01:00pm 12.1 W 18 24 1027.9 - 0.0 - Partly cloudy 10 - - - -
27/12:30pm 12.1 W 19 26 1028.1 - 0.0 - Partly cloudy 10 - - - -
27/12:00pm 11.5 W 16 21 1028.6 - 0.0 - Cloudy 10 - - - -
27/11:30am 11.1 W 18 23 1029.0 - 0.0 - Partly cloudy 10 - - - -
27/11:00am 10.5 W 15 21 1028.9 - 0.0 - Partly cloudy 10 - - - -
27/10:30am 9.6 W 14 19 1028.7 - 0.0 - Partly cloudy 10 - - - -
27/10:00am 9.2 WNW 16 21 1028.3 - 0.0 - Partly cloudy 10 - - - -
27/09:30am 8.4 WNW 16 20 1028.0 - 0.0 - - 10 - - - -
27/09:00am 7.3 WNW 15 20 1027.5 - 0.6 - Mostly clear 10 - - - -
27/08:30am 6.6 WNW 15 19 1027.2 - 0.6 - Partly cloudy 10 - - - -
27/08:00am 5.3 WNW 10 11 1027.0 - 0.6 - - 10 - - - -
27/07:30am 5.4 WNW 13 17 1026.5 - 0.6 - - 10 - - - -
27/07:00am 5.4 WNW 13 16 1025.9 - 0.6 - - 10 - - - -
27/06:30am 5.4 WNW 14 17 1025.7 - 0.6 - Partly cloudy 10 - - - -
27/06:00am 5.4 WNW 13 17 1025.3 - 0.6 - Cloudy 10 - - - -
27/05:30am 5.1 WNW 12 15 1025.0 - 0.6 - Partly cloudy 10 - - - -
27/05:00am 5.2 WNW 14 17 1024.7 - 0.6 - Partly cloudy 10 - - - -
27/04:30am 5.5 WNW 15 19 1024.6 - 0.6 - Partly cloudy 10 - - - -
27/04:00am 5.0 WNW 14 17 1024.1 - 0.6 - - 10 - - - -
27/03:30am 5.0 WNW 15 19 1023.9 - 0.6 - - 10 - - - -
27/03:00am 4.8 WNW 14 17 1023.6 - 0.6 - - 10 - - - -
27/02:30am 5.0 WNW 15 19 1023.4 - 0.6 - - 10 - - - -
27/02:00am 4.9 WNW 14 17 1023.3 - 0.6 - - 10 - - - -
27/01:30am 5.0 WNW 13 16 1023.0 - 0.6 - Partly cloudy 10 - - - -
27/01:00am 5.1 WNW 15 20 1022.9 - 0.6 - - 10 - - - -
27/12:30am 5.3 WNW 15 19 1022.6 - 0.6 - - 10 - - - -
27/12:00am 5.0 WNW 13 17 1022.4 - 0.6 Drizzle Mostly clear 10 - - - -
 
Date/Time
EST
Temp

°C
Wind Pressure Rain
since 9am
mm
Weather Cloud Vis
km
Sea
Height
m
Swell
Dir
 
Speed
knots
Gust
knots
hPa Trend Height
m
Period
s
Dir
26/11:30pm 5.7 WNW 15 20 1022.3 - 0.6 - Partly cloudy 10 - - - -
26/11:00pm 5.9 WNW 17 24 1022.0 - 0.6 - Partly cloudy 10 - - - -
26/10:30pm 5.7 WNW 14 18 1021.7 - 0.6 - Partly cloudy 10 - - - -
26/10:00pm 5.9 WNW 19 25 1021.0 - 0.6 - - 10 - - - -
26/09:30pm 5.9 WNW 17 24 1020.6 - 0.6 - - 10 - - - -
26/09:00pm 6.0 W 14 19 1020.5 - 0.6 Showers Partly cloudy 10 - - - -
26/08:30pm 6.2 WNW 16 23 1019.9 - 0.6 - Partly cloudy 10 - - - -
26/08:00pm 6.6 WNW 18 26 1019.5 - 0.6 - - 10 - - - -
26/07:30pm 6.8 WNW 17 22 1019.1 - 0.6 - Partly cloudy 10 - - - -
26/07:00pm 6.7 WNW 17 28 1018.4 - 0.6 - - 10 - - - -
26/06:30pm 7.0 WNW 16 23 1017.8 - 0.6 - - 10 - - - -
26/06:00pm 7.1 WNW 17 24 1017.2 - 0.6 - - 10 - - - -
26/05:30pm 7.4 WNW 17 23 1016.7 - 0.6 - Partly cloudy 10 - - - -
26/05:00pm 7.9 WNW 19 27 1016.6 - 0.6 - Partly cloudy 10 - - - -
26/04:30pm 8.5 WNW 18 27 1016.1 - 0.6 - Partly cloudy 10 - - - -
26/04:00pm 8.2 W 18 24 1015.6 - 0.6 - Partly cloudy 10 - - - -
26/03:52pm 8.3 W 15 25 1015.4 - 0.6 - Partly cloudy 10 - - - -
26/03:30pm 8.2 W 15 26 1015.2 - 0.6 - Partly cloudy 10 - - - -
26/03:03pm 9.7 W 24 34 1014.5 - 0.4 - Partly cloudy 10 - - - -
26/03:00pm 9.8 W 26 34 1014.5 - 0.4 - Mostly clear 10 - - - -
26/02:48pm 9.7 WNW 23 34 1014.4 - 0.4 - - 10 - - - -
26/02:30pm 9.2 WNW 21 30 1014.3 - 0.4 - - 10 - - - -
26/02:27pm 9.2 WNW 19 30 1014.2 - 0.4 - - 10 - - - -
26/02:00pm 7.2 NW 21 26 1014.1 - 0.4 - Partly cloudy 10 - - - -
26/01:35pm 8.3 WNW 20 32 1014.0 - 0.4 - Partly cloudy 10 - - - -
26/01:30pm 7.9 WNW 19 25 1013.9 - 0.4 - Partly cloudy 10 - - - -
26/01:00pm 8.6 WNW 24 31 1013.9 - 0.2 - Partly cloudy 10 - - - -
26/12:30pm 7.2 W 24 34 1013.8 - 0.2 - Partly cloudy 7 - - - -
26/12:06pm 8.7 WNW 24 34 1013.7 - 0.0 - Partly cloudy 10 - - - -
26/12:00pm 7.4 WNW 27 35 1013.8 - 0.0 Showers Cloudy 10 - - - -
26/11:51am 9.1 WNW 24 34 1013.8 - 0.0 - Partly cloudy 10 - - - -
26/11:30am 9.0 WNW 24 33 1013.7 - 0.0 - Partly cloudy 10 - - - -
26/11:13am 9.2 WNW 28 39 1013.5 - 0.0 - Partly cloudy 10 - - - -
26/11:00am 9.3 WNW 28 36 1013.4 - 0.0 - Partly cloudy 10 - - - -
26/10:30am 9.2 WNW 27 37 1012.9 - 0.0 - Partly cloudy 10 - - - -
26/10:10am 7.9 WNW 25 35 1013.0 - 0.0 - Partly cloudy 10 - - - -
26/10:00am 8.2 WNW 25 34 1012.6 - 0.0 - Partly cloudy 10 - - - -
26/09:30am 8.8 WNW 21 35 1012.2 - 0.0 - Partly cloudy 10 - - - -
26/09:22am 8.5 NW 21 35 1012.0 - 0.0 - - 10 - - - -
26/09:00am 8.1 NW 21 29 1011.6 - 5.2 - - 10 - - - -
26/08:30am 7.6 NW 22 29 1011.0 - 5.2 - - 10 - - - -
26/08:00am 7.4 NW 23 34 1010.7 - 5.2 - - 10 - - - -
26/07:48am 7.5 NW 23 33 1010.2 - 5.2 - - 10 - - - -
26/07:30am 7.4 NW 21 29 1010.1 - 5.2 - - 10 - - - -
26/07:00am 7.4 NW 19 27 1010.0 - 5.2 - - 10 - - - -
26/06:30am 7.7 NW 18 26 1009.7 - 5.2 - - 10 - - - -
26/06:00am 7.7 NW 17 22 1009.4 - 5.2 - - 10 - - - -
26/05:30am 7.9 NW 21 29 1009.1 - 5.2 - - 10 - - - -
26/05:00am 8.2 WNW 19 25 1008.9 - 5.2 - - 10 - - - -
26/04:41am 8.3 WNW 19 29 1008.7 - 5.2 - - 10 - - - -
26/04:30am 8.2 WNW 17 21 1008.8 - 5.2 - - 10 - - - -
26/04:00am 8.5 WNW 18 25 1008.4 - 5.2 - - 10 - - - -
26/03:30am 8.3 WNW 17 22 1008.6 - 5.2 - Partly cloudy 10 - - - -
26/03:06am 8.5 WNW 22 31 1008.7 - 5.2 - Partly cloudy 10 - - - -
26/03:00am 9.3 WNW 22 29 1008.5 - 5.2 - Cloudy 10 - - - -
26/02:30am 9.6 WNW 25 32 1008.2 - 5.2 - Partly cloudy 10 - - - -
26/02:00am 9.6 NW 21 30 1008.1 - 5.2 - Partly cloudy 10 - - - -
26/01:30am 9.7 NW 20 27 1008.1 - 5.2 - Partly cloudy 10 - - - -
26/01:00am 9.1 WNW 17 24 1008.1 - 4.8 - Partly cloudy 10 - - - -
26/12:30am 9.2 WNW 21 28 1008.1 - 4.6 - Partly cloudy 10 - - - -
26/12:25am 9.2 WNW 22 29 1008.1 - 4.6 - Partly cloudy 10 - - - -
26/12:00am 9.2 WNW 24 35 1008.5 - 3.0 Rain Mostly cloudy 2 - - - -
 
Date/Time
EST
Temp

°C
Wind Pressure Rain
since 9am
mm
Weather Cloud Vis
km
Sea
Height
m
Swell
Dir
 
Speed
knots
Gust
knots
hPa Trend Height
m
Period
s
Dir
25/11:53pm 9.7 WNW 23 35 1008.4 - 0.6 - Partly cloudy 6 - - - -
25/11:51pm 10.0 WNW 22 35 1008.3 - 0.4 - Partly cloudy 10 - - - -
25/11:48pm 11.3 NW 21 28 1008.1 - 0.0 - Partly cloudy 10 - - - -
25/11:30pm 12.5 NNW 18 25 1006.8 - 0.0 - Partly cloudy 10 - - - -

Other Formats:

Comma delimited format used in spreadsheet applications
http://www.bom.gov.au/fwo/IDV60701/IDV60701.94854.axf

JavaScript Object Notation format (JSON) in row-major order
http://www.bom.gov.au/fwo/IDV60701/IDV60701.94854.json